Time;durP1;ratioP1;P1;durP2;ratioP2;P2;SDS_P1;SDS_P2;PMS_P1;PMS_P2;Temp;Humidity;BMP_temperature;BMP_pressure;BME280_temperature;BME280_humidity;BME280_pressure;Samples;Min_cycle;Max_cycle;Signal;HPM_P1;HPM_P2
2022/05/06 00:04:44;;;;;;;8.70;7.60;;;;;;;13.65;58.31;99890.38;441839;1286;142142;-59
2022/05/06 00:14:50;;;;;;;9.20;8.20;;;;;;;13.42;59.03;99884.09;439231;1286;142668;-59
2022/05/06 00:25:02;;;;;;;9.20;8.30;;;;;;;13.36;59.47;99880.09;440786;1285;142430;-58
2022/05/06 00:35:09;;;;;;;9.40;8.50;;;;;;;13.42;59.83;99884.05;439593;1286;142270;-60
2022/05/06 00:45:15;;;;;;;9.30;8.40;;;;;;;13.48;60.27;99901.82;440151;1284;141939;-58
2022/05/06 00:55:22;;;;;;;10.80;9.80;;;;;;;13.49;60.52;99913.84;441519;1286;141640;-58
2022/05/06 01:05:28;;;;;;;10.40;9.40;;;;;;;13.44;60.90;99909.95;441144;1286;141757;-58
2022/05/06 01:15:34;;;;;;;10.50;9.50;;;;;;;13.44;61.10;99911.34;441833;1286;141491;-58
2022/05/06 01:25:39;;;;;;;11.30;10.20;;;;;;;13.36;61.48;99921.05;441928;1286;143526;-59
2022/05/06 01:35:47;;;;;;;11.30;10.20;;;;;;;13.32;61.76;99922.71;441046;1285;144046;-59
2022/05/06 01:45:56;;;;;;;12.70;10.60;;;;;;;13.31;62.07;99919.60;438534;1285;142800;-59
2022/05/06 01:56:04;;;;;;;12.00;10.90;;;;;;;13.28;62.37;99919.67;441281;1286;141796;-59
2022/05/06 02:06:09;;;;;;;14.40;12.90;;;;;;;13.26;62.66;99919.24;441843;1286;198381;-59
2022/05/06 02:16:16;;;;;;;13.20;11.90;;;;;;;13.23;62.98;99928.27;441921;1286;141434;-59
2022/05/06 02:26:21;;;;;;;14.40;12.90;;;;;;;13.04;63.61;99933.83;440652;1286;142183;-58
2022/05/06 02:36:27;;;;;;;15.10;12.90;;;;;;;12.78;64.50;99935.92;441413;1286;142331;-59
2022/05/06 02:46:33;;;;;;;15.60;14.10;;;;;;;12.64;65.15;99930.70;441957;1286;142279;-59
2022/05/06 02:56:39;;;;;;;16.00;14.30;;;;;;;12.56;65.61;99935.59;431072;1285;142761;-58
2022/05/06 03:06:45;;;;;;;15.50;14.10;;;;;;;12.44;66.57;99939.93;438146;1286;142206;-58
2022/05/06 03:16:51;;;;;;;16.70;14.90;;;;;;;12.21;67.39;99949.98;441990;1286;141608;-57
2022/05/06 03:26:57;;;;;;;16.90;15.30;;;;;;;12.07;68.20;99957.25;441282;1285;141961;-58
2022/05/06 03:37:03;;;;;;;20.30;18.30;;;;;;;11.97;69.03;99967.63;441472;1287;142266;-57
2022/05/06 03:47:09;;;;;;;25.40;22.40;;;;;;;12.05;69.60;99972.98;439789;1285;142641;-58
2022/05/06 03:57:15;;;;;;;27.60;24.80;;;;;;;12.16;69.98;99979.09;441967;1285;144772;-58
2022/05/06 04:07:21;;;;;;;27.00;24.20;;;;;;;12.19;70.22;99987.72;436227;1285;141699;-59
2022/05/06 04:17:27;;;;;;;32.10;28.20;;;;;;;12.26;70.45;99996.19;438063;1285;142332;-59
2022/05/06 04:27:33;;;;;;;30.30;27.00;;;;;;;12.40;70.37;100016.06;442035;1284;143516;-57
2022/05/06 04:37:39;;;;;;;27.50;24.60;;;;;;;12.47;70.48;100023.44;436281;1285;142952;-58
2022/05/06 04:47:45;;;;;;;31.60;26.80;;;;;;;12.51;70.53;100038.12;440881;1285;143272;-58
2022/05/06 04:57:51;;;;;;;29.00;25.80;;;;;;;12.61;70.46;100048.21;441587;1285;142616;-58
2022/05/06 05:07:57;;;;;;;28.70;25.80;;;;;;;12.74;70.24;100048.64;430158;1286;141862;-58
2022/05/06 05:18:02;;;;;;;28.20;25.30;;;;;;;12.64;70.43;100042.92;441927;1286;143366;-59
2022/05/06 05:28:08;;;;;;;31.80;27.40;;;;;;;12.83;70.36;100043.64;441056;1285;142915;-62
2022/05/06 05:38:14;;;;;;;30.90;24.90;;;;;;;13.18;70.05;100050.95;439922;1286;141990;-59
2022/05/06 05:48:23;;;;;;;30.80;26.00;;;;;;;13.88;69.11;100062.23;439672;1286;146241;-58
2022/05/06 05:58:29;;;;;;;32.60;28.00;;;;;;;14.46;67.84;100065.48;441929;1286;142896;-58
2022/05/06 06:08:35;;;;;;;31.10;26.30;;;;;;;14.54;67.01;100070.77;439571;1286;145345;-57
2022/05/06 06:18:41;;;;;;;37.30;27.70;;;;;;;14.26;66.99;100080.84;441978;1286;142711;-56
2022/05/06 06:28:47;;;;;;;38.10;27.50;;;;;;;14.14;67.05;100090.67;441400;1286;142503;-58
2022/05/06 06:38:53;;;;;;;31.10;25.90;;;;;;;14.37;66.51;100096.65;441206;1286;143279;-57
2022/05/06 06:48:59;;;;;;;29.50;24.00;;;;;;;14.45;66.12;100109.84;441930;1286;143085;-57
2022/05/06 06:59:05;;;;;;;31.60;27.30;;;;;;;14.81;65.50;100110.04;441131;1285;143607;-57
2022/05/06 07:19:34;;;;;;;31.10;26.70;;;;;;;15.69;63.57;100109.31;433467;1287;144856;-58
2022/05/06 07:29:40;;;;;;;35.80;26.00;;;;;;;16.00;62.58;100113.36;434919;1286;143447;-58
2022/05/06 07:39:46;;;;;;;29.50;22.10;;;;;;;16.13;62.03;100118.12;434759;1286;142741;-57
2022/05/06 07:49:52;;;;;;;22.80;20.50;;;;;;;16.52;61.06;100122.10;427023;1287;141893;-58
2022/05/06 07:59:58;;;;;;;20.10;18.00;;;;;;;17.16;59.74;100120.27;426336;1287;143877;-61
2022/05/06 08:10:06;;;;;;;21.90;19.30;;;;;;;19.20;56.15;100127.45;427407;1287;141587;-60
2022/05/06 08:20:11;;;;;;;;;;;;;;;19.62;53.33;100132.38;428107;1286;141306;-59
2022/05/06 08:30:17;;;;;;;14.60;13.20;;;;;;;21.07;51.04;100121.84;428777;1286;127266;-58
2022/05/06 08:40:25;;;;;;;8.50;7.70;;;;;;;21.31;48.44;100117.34;426329;1287;140991;-59
2022/05/06 08:50:52;;;;;;;12.50;9.70;;;;;;;21.41;45.53;100123.73;427357;1287;141789;-59
2022/05/06 09:01:05;;;;;;;9.70;8.80;;;;;;;21.36;44.30;100129.31;428804;1285;147301;-58
2022/05/06 09:12:40;;;;;;;9.50;7.10;;;;;;;21.37;42.77;100126.95;426995;1287;141818;-58
2022/05/06 09:22:06;;;;;;;14.80;8.70;;;;;;;21.25;41.66;100135.82;426105;1287;141154;-49
2022/05/06 09:32:17;;;;;;;10.20;8.60;;;;;;;20.94;40.86;100140.63;428994;1286;481641;-52
2022/05/06 09:42:26;;;;;;;14.30;10.60;;;;;;;21.27;41.15;100145.73;431540;1286;142958;-48
2022/05/06 09:52:32;;;;;;;14.30;9.80;;;;;;;21.30;40.68;100133.70;426977;1286;141657;-57
2022/05/06 10:02:38;;;;;;;15.20;9.30;;;;;;;21.60;40.79;100125.36;426584;1286;140831;-56
2022/05/06 10:12:53;;;;;;;10.20;9.20;;;;;;;21.46;40.20;100126.90;427348;1286;141897;-58
2022/05/06 10:23:04;;;;;;;12.30;8.20;;;;;;;21.06;39.85;100137.28;427177;1287;140858;-57
2022/05/06 10:33:10;;;;;;;11.60;6.10;;;;;;;21.48;39.92;100143.64;427016;1286;142093;-59
2022/05/06 10:43:54;;;;;;;8.20;5.90;;;;;;;21.09;38.89;100140.36;426572;1285;141832;-58
2022/05/06 10:54:00;;;;;;;10.90;5.70;;;;;;;20.57;39.52;100128.02;428006;1286;184856;-58
2022/05/06 11:04:06;;;;;;;9.10;4.50;;;;;;;20.28;39.68;100116.59;427209;1287;141485;-56
2022/05/06 11:14:22;;;;;;;5.90;3.30;;;;;;;19.64;38.42;100113.23;425754;1287;145728;-61
2022/05/06 11:24:32;;;;;;;5.00;3.30;;;;;;;19.39;38.31;100100.78;429116;1286;141363;-58
2022/05/06 11:34:46;;;;;;;9.00;3.30;;;;;;;19.40;38.46;100097.29;426862;1285;140641;-56
2022/05/06 11:55:35;;;;;;;6.70;2.70;;;;;;;19.60;37.40;100093.83;429130;1285;145205;-58
2022/05/06 12:05:42;;;;;;;6.50;2.20;;;;;;;19.58;37.37;100091.77;427235;1286;141467;-60
2022/05/06 12:15:48;;;;;;;9.80;1.90;;;;;;;19.82;36.49;100084.91;426912;1285;141027;-58
2022/05/06 12:25:57;;;;;;;2.40;1.50;;;;;;;19.96;34.33;100089.85;428524;1285;141011;-62
2022/05/06 12:36:05;;;;;;;20.10;3.20;;;;;;;19.80;33.17;100081.37;427845;1286;140721;-57
2022/05/06 12:46:11;;;;;;;3.00;1.30;;;;;;;19.37;32.02;100079.98;427974;1285;143367;-60
2022/05/06 12:56:21;;;;;;;4.40;1.40;;;;;;;19.13;31.31;100073.33;428365;1286;140779;-60
2022/05/06 13:06:27;;;;;;;9.00;2.90;;;;;;;19.10;31.60;100067.56;426795;1287;141214;-60
2022/05/06 13:16:35;;;;;;;2.80;2.50;;;;;;;19.16;31.79;100060.81;426821;1285;141086;-59
2022/05/06 13:26:41;;;;;;;6.60;2.80;;;;;;;18.94;32.08;100045.38;430109;1285;141658;-59
2022/05/06 13:36:51;;;;;;;7.20;2.80;;;;;;;18.76;33.13;100038.33;427194;1286;141339;-57
2022/05/06 13:46:58;;;;;;;5.50;2.70;;;;;;;18.78;33.34;100042.94;426248;1285;141799;-60
2022/05/06 14:07:28;;;;;;;9.90;2.60;;;;;;;18.58;33.09;100050.14;428432;1285;140809;-58
2022/05/06 14:17:34;;;;;;;5.10;2.40;;;;;;;18.44;32.89;100041.45;425907;1286;141568;-58
2022/05/06 14:27:40;;;;;;;6.20;2.20;;;;;;;18.48;32.57;100043.90;426370;1284;141059;-58
2022/05/06 14:37:48;;;;;;;4.90;2.40;;;;;;;18.40;32.62;100042.97;427189;1285;143398;-59
2022/05/06 14:47:54;;;;;;;4.30;2.80;;;;;;;18.34;32.81;100043.67;427938;1287;141016;-58
2022/05/06 14:58:00;;;;;;;3.40;2.30;;;;;;;18.36;32.12;100041.42;427039;1285;142004;-59
2022/05/06 15:08:08;;;;;;;4.20;1.80;;;;;;;18.35;32.20;100039.71;425331;1286;146861;-59
2022/05/06 15:28:48;;;;;;;6.40;1.70;;;;;;;18.12;31.30;100022.50;426612;1286;141494;-60
2022/05/06 15:38:54;;;;;;;4.20;1.50;;;;;;;17.96;31.27;100019.40;426112;1286;141015;-58
2022/05/06 15:49:00;;;;;;;2.20;1.90;;;;;;;17.83;31.49;100024.04;426778;1287;147178;-58
2022/05/06 15:59:06;;;;;;;2.00;1.80;;;;;;;17.74;31.27;100023.42;426065;1287;145354;-58
2022/05/06 16:09:12;;;;;;;5.50;2.30;;;;;;;17.64;30.98;100020.94;427557;1286;141576;-58
2022/05/06 16:19:17;;;;;;;1.70;0.90;;;;;;;17.59;31.24;100024.52;427363;1287;141434;-59
2022/05/06 16:29:23;;;;;;;2.80;1.80;;;;;;;17.49;31.28;100018.69;427276;1285;143456;-57
2022/05/06 16:39:29;;;;;;;4.40;1.70;;;;;;;17.34;32.69;100021.35;429082;1285;142973;-59
2022/05/06 16:49:36;;;;;;;5.20;2.00;;;;;;;17.25;33.97;100028.98;426033;1286;140712;-60
2022/05/06 16:59:42;;;;;;;11.00;2.90;;;;;;;17.16;34.69;100031.77;425550;1286;141510;-58
2022/05/06 17:09:48;;;;;;;8.00;2.50;;;;;;;17.05;35.25;100028.25;428152;1285;183693;-58
2022/05/06 17:19:53;;;;;;;6.00;2.30;;;;;;;17.27;35.20;100042.80;427377;1285;145878;-58
2022/05/06 17:29:59;;;;;;;7.20;2.50;;;;;;;16.86;35.27;100047.58;428645;1285;142258;-56
2022/05/06 17:40:12;;;;;;;6.10;2.00;;;;;;;16.42;35.90;100046.09;427880;1286;146345;-58
2022/05/06 17:50:21;;;;;;;3.50;1.70;;;;;;;16.03;36.41;100047.73;429038;1285;141476;-59
2022/05/06 18:10:52;;;;;;;7.40;4.10;;;;;;;15.28;37.98;100067.27;428378;1285;142939;-59
2022/05/06 18:20:58;;;;;;;6.10;3.10;;;;;;;14.89;38.92;100070.70;427438;1286;141467;-61
2022/05/06 18:31:05;;;;;;;13.20;3.60;;;;;;;14.54;39.88;100073.55;428210;1287;141848;-59
2022/05/06 18:41:11;;;;;;;15.70;5.10;;;;;;;14.22;41.18;100081.16;427085;1285;142166;-61
2022/05/06 18:51:17;;;;;;;12.80;5.90;;;;;;;13.72;42.94;100088.14;427376;1285;143631;-58
2022/05/06 19:01:23;;;;;;;23.60;6.90;;;;;;;13.29;44.46;100095.80;429138;1285;142096;-58
2022/05/06 19:11:29;;;;;;;17.70;6.10;;;;;;;12.90;45.58;100101.67;427661;1285;143328;-59
2022/05/06 19:31:59;;;;;;;25.80;9.50;;;;;;;12.24;47.83;100107.64;429248;1285;142930;-57
2022/05/06 19:42:06;;;;;;;18.40;8.00;;;;;;;11.93;49.19;100116.54;427567;1285;145201;-57
2022/05/06 20:02:35;;;;;;;12.60;6.30;;;;;;;11.28;51.25;100122.77;425801;1285;142545;-58
2022/05/06 20:12:41;;;;;;;15.20;5.80;;;;;;;11.00;51.98;100129.31;425672;1285;140919;-58
2022/05/06 20:22:47;;;;;;;17.90;6.60;;;;;;;10.69;52.75;100124.19;427880;1285;141537;-58
2022/05/06 20:32:53;;;;;;;18.40;7.40;;;;;;;10.41;53.76;100131.69;426937;1285;141765;-57
2022/05/06 20:42:59;;;;;;;12.20;7.10;;;;;;;10.11;54.59;100133.95;425860;1285;141007;-55
2022/05/06 20:53:05;;;;;;;17.80;7.80;;;;;;;9.81;55.50;100135.14;439369;1285;163458;-56
2022/05/06 21:03:11;;;;;;;17.80;11.60;;;;;;;9.58;56.20;100134.95;442054;1285;141643;-56
2022/05/06 21:13:17;;;;;;;23.00;13.60;;;;;;;9.42;56.85;100135.59;441747;1285;141166;-56
2022/05/06 21:23:23;;;;;;;26.90;14.70;;;;;;;9.25;57.47;100132.22;431861;1285;142175;-58
2022/05/06 21:33:29;;;;;;;29.50;17.90;;;;;;;9.03;58.14;100128.08;437652;1285;227241;-57
2022/05/06 21:43:35;;;;;;;25.70;15.60;;;;;;;8.87;58.80;100126.73;441695;1285;143534;-58
2022/05/06 21:53:41;;;;;;;17.00;12.90;;;;;;;8.67;59.26;100126.27;441086;1285;142176;-58
2022/05/06 22:03:48;;;;;;;17.70;12.40;;;;;;;8.56;59.83;100123.85;440743;1285;143402;-59
2022/05/06 22:13:54;;;;;;;18.00;12.60;;;;;;;8.38;60.08;100128.11;442076;1284;142383;-59
2022/05/06 22:24:00;;;;;;;21.20;10.70;;;;;;;8.23;60.67;100128.08;441227;1285;143209;-56
2022/05/06 22:54:53;;;;;;;19.30;12.70;;;;;;;7.69;61.87;100121.92;442074;1284;143429;-56
2022/05/06 23:04:59;;;;;;;16.70;12.90;;;;;;;7.54;62.21;100119.11;442040;1285;142337;-56
2022/05/06 23:15:05;;;;;;;20.10;13.10;;;;;;;7.39;62.55;100117.61;437813;1285;142152;-56
2022/05/06 23:25:11;;;;;;;17.70;12.70;;;;;;;7.25;63.00;100123.98;442193;1285;143025;-54
2022/05/06 23:35:17;;;;;;;19.50;14.20;;;;;;;7.04;63.58;100124.09;441498;1285;142859;-54
2022/05/06 23:45:23;;;;;;;19.60;13.70;;;;;;;6.91;63.80;100122.20;438212;1285;143419;-48
2022/05/06 23:55:29;;;;;;;14.90;11.60;;;;;;;6.75;64.14;100118.46;442117;1285;143677;-51
